createdAt,value
2017-01-06T09:20:34.066Z,1029.7
2017-01-06T09:21:45.389Z,1029.68
2017-01-06T09:22:56.748Z,1029.7
2017-01-06T09:24:07.650Z,1029.72
2017-01-06T09:25:18.591Z,1029.71
2017-01-06T09:26:29.056Z,1029.76
2017-01-06T09:27:39.945Z,1029.75
2017-01-06T09:28:51.267Z,1029.79
2017-01-06T09:30:02.168Z,1029.82
2017-01-06T09:31:13.545Z,1029.88
2017-01-06T09:32:24.439Z,1029.83
2017-01-06T09:33:35.344Z,1029.82
2017-01-06T09:34:46.261Z,1029.82
2017-01-06T09:35:57.162Z,1029.83
2017-01-06T09:37:08.535Z,1029.86
2017-01-06T09:38:19.868Z,1029.88
2017-01-06T09:39:31.206Z,1029.84
2017-01-06T09:40:42.179Z,1029.84
2017-01-06T09:41:53.232Z,1029.77
2017-01-06T09:43:03.834Z,1029.78
2017-01-06T09:44:14.731Z,1029.76
2017-01-06T09:45:25.628Z,1029.79
2017-01-06T09:46:36.534Z,1029.81
2017-01-06T09:47:47.431Z,1029.85
2017-01-06T09:48:58.376Z,1029.88
2017-01-06T09:50:08.837Z,1029.85
2017-01-06T09:51:19.730Z,1029.82
2017-01-06T09:52:31.064Z,1029.84
2017-01-06T09:53:41.961Z,1029.83
2017-01-06T09:54:53.342Z,1029.75
2017-01-06T09:56:04.672Z,1029.76
2017-01-06T09:57:16.005Z,1029.76
2017-01-06T09:58:26.462Z,1029.78
2017-01-06T09:59:37.783Z,1029.81
2017-01-06T10:00:49.172Z,1029.76
2017-01-06T10:02:00.093Z,1029.78
2017-01-06T10:03:11.422Z,1029.81
2017-01-06T10:04:22.329Z,1029.79
2017-01-06T10:05:33.672Z,1029.8
2017-01-06T10:06:44.622Z,1029.77
2017-01-06T10:07:55.951Z,1029.75
2017-01-06T10:09:06.876Z,1029.71
2017-01-06T10:10:18.210Z,1029.72
2017-01-06T10:11:29.106Z,1029.7
2017-01-06T10:12:40.059Z,1029.76
2017-01-06T10:13:50.960Z,1029.72
2017-01-06T10:15:02.289Z,1029.75
2017-01-06T10:16:13.614Z,1029.77
2017-01-06T10:17:24.516Z,1029.77
2017-01-06T10:18:35.485Z,1029.77
2017-01-06T10:19:46.386Z,1029.76
2017-01-06T10:20:57.715Z,1029.7
2017-01-06T10:22:08.241Z,1029.72
2017-01-06T10:23:19.154Z,1029.72
2017-01-06T10:24:30.103Z,1029.67
2017-01-06T10:25:41.004Z,1029.71
2017-01-06T10:26:52.353Z,1029.74
2017-01-06T10:28:03.259Z,1029.76
2017-01-06T10:29:14.588Z,1029.76
2017-01-06T10:30:25.957Z,1029.79
2017-01-06T10:31:36.858Z,1029.82
2017-01-06T10:32:48.184Z,1029.77
2017-01-06T10:33:59.505Z,1029.79
2017-01-06T10:35:11.067Z,1029.8
2017-01-06T10:36:28.199Z,1029.79
2017-01-06T10:37:38.673Z,1029.75
2017-01-06T10:38:49.606Z,1029.77
2017-01-06T10:40:00.499Z,1029.82
2017-01-06T10:41:11.456Z,1029.79
2017-01-06T10:42:22.350Z,1029.76
2017-01-06T10:43:33.675Z,1029.81
2017-01-06T10:44:45.000Z,1029.75
2017-01-06T10:45:55.893Z,1029.8
2017-01-06T10:47:06.415Z,1029.83
2017-01-06T10:48:17.741Z,1029.8
2017-01-06T10:49:29.793Z,1029.78
2017-01-06T10:50:43.158Z,1029.74
2017-01-06T10:51:54.515Z,1029.71
2017-01-06T10:53:06.156Z,1029.67
2017-01-06T10:54:17.966Z,1029.64
2017-01-06T10:55:28.763Z,1029.6
2017-01-06T10:56:39.692Z,1029.59
2017-01-06T10:57:51.066Z,1029.57
2017-01-06T10:59:02.339Z,1029.57
2017-01-06T11:00:12.808Z,1029.62
2017-01-06T11:01:23.289Z,1029.62
2017-01-06T11:02:34.046Z,1029.63
2017-01-06T11:03:45.419Z,1029.59
2017-01-06T11:04:56.889Z,1029.6
2017-01-06T11:06:07.330Z,1029.58
2017-01-06T11:07:17.940Z,1029.61
2017-01-06T11:08:28.989Z,1029.58
2017-01-06T11:09:40.130Z,1029.57
2017-01-06T11:10:51.043Z,1029.55
2017-01-06T11:12:01.940Z,1029.53
2017-01-06T11:13:13.313Z,1029.54
2017-01-06T11:14:24.643Z,1029.52
2017-01-06T11:15:35.992Z,1029.54
2017-01-06T11:16:46.885Z,1029.46
2017-01-06T11:17:58.210Z,1029.45
2017-01-06T11:19:09.171Z,1029.39
2017-01-06T11:20:20.073Z,1029.34
2017-01-06T11:21:31.398Z,1029.32
2017-01-06T11:22:42.299Z,1029.27
2017-01-06T11:23:53.200Z,1029.28
2017-01-06T11:25:04.146Z,1029.3
2017-01-06T11:26:15.479Z,1029.29
2017-01-06T11:27:26.804Z,1029.29
2017-01-06T11:28:37.726Z,1029.28
2017-01-06T11:29:49.077Z,1029.29
2017-01-06T11:31:00.032Z,1029.24
2017-01-06T11:32:11.365Z,1029.24
2017-01-06T11:33:21.834Z,1029.2
2017-01-06T11:34:33.159Z,1029.2
2017-01-06T11:35:44.057Z,1029.25
2017-01-06T11:36:54.574Z,1029.2
2017-01-06T11:38:05.935Z,1029.24
2017-01-06T11:39:16.836Z,1029.23
2017-01-06T11:40:28.174Z,1029.15
2017-01-06T11:41:39.503Z,1029.18
2017-01-06T11:42:50.876Z,1029.17
2017-01-06T11:44:01.785Z,1029.17
2017-01-06T11:45:12.687Z,1029.22
2017-01-06T11:46:24.004Z,1029.24
2017-01-06T11:47:34.901Z,1029.27
2017-01-06T11:48:45.878Z,1029.28
2017-01-06T11:49:57.215Z,1029.26
2017-01-06T11:51:08.548Z,1029.24
2017-01-06T11:52:19.017Z,1029.21
2017-01-06T11:53:30.338Z,1029.18
2017-01-06T11:54:40.859Z,1029.18
2017-01-06T11:55:51.760Z,1029.16
2017-01-06T11:57:03.089Z,1029.13
2017-01-06T11:58:13.991Z,1029.13
2017-01-06T11:59:24.895Z,1029.1
2017-01-06T12:00:35.856Z,1029.07
2017-01-06T12:01:47.193Z,1029.09
2017-01-06T12:02:58.086Z,1029.15
2017-01-06T12:04:09.411Z,1029.13
2017-01-06T12:05:20.321Z,1029.11
2017-01-06T12:06:31.306Z,1029.1
2017-01-06T12:07:42.631Z,1029.11
2017-01-06T12:08:53.528Z,1029.07
2017-01-06T12:10:04.425Z,1029.07
2017-01-06T12:11:15.750Z,1029.06
2017-01-06T12:12:26.715Z,1029.02
2017-01-06T12:13:37.612Z,1028.96
2017-01-06T12:14:48.929Z,1028.99
2017-01-06T12:15:59.822Z,1028.91
2017-01-06T12:17:10.723Z,1028.95
2017-01-06T12:18:22.092Z,1028.97
2017-01-06T12:19:32.993Z,1028.93
2017-01-06T12:20:43.919Z,1028.88
2017-01-06T12:21:54.820Z,1028.85
2017-01-06T12:23:05.742Z,1028.81
2017-01-06T12:24:16.690Z,1028.77
2017-01-06T12:25:27.583Z,1028.75
2017-01-06T12:26:38.932Z,1028.68
2017-01-06T12:27:50.485Z,1028.66
2017-01-06T12:29:02.879Z,1028.69
2017-01-06T12:30:13.500Z,1028.65
2017-01-06T12:31:24.825Z,1028.68
2017-01-06T12:32:36.154Z,1028.69
2017-01-06T12:33:47.055Z,1028.64
2017-01-06T12:34:57.952Z,1028.63
2017-01-06T12:36:09.770Z,1028.6
2017-01-06T12:37:20.611Z,1028.61
2017-01-06T12:38:31.924Z,1028.58
2017-01-06T12:39:43.209Z,1028.6
2017-01-06T12:40:53.906Z,1028.55
2017-01-06T12:42:05.496Z,1028.49
2017-01-06T12:43:17.341Z,1028.48
2017-01-06T12:44:27.666Z,1028.45
2017-01-06T12:45:38.495Z,1028.47
2017-01-06T12:46:49.293Z,1028.44
2017-01-06T12:48:00.674Z,1028.45
2017-01-06T12:49:11.851Z,1028.5
2017-01-06T12:50:23.372Z,1028.48
2017-01-06T12:51:34.265Z,1028.45
2017-01-06T12:52:46.010Z,1028.42
2017-01-06T12:53:57.536Z,1028.42
2017-01-06T12:55:08.677Z,1028.41
2017-01-06T12:56:19.743Z,1028.39
2017-01-06T12:57:29.891Z,1028.35
2017-01-06T12:58:40.793Z,1028.39
2017-01-06T12:59:51.482Z,1028.38
2017-01-06T13:01:01.899Z,1028.43
2017-01-06T13:02:12.901Z,1028.41
2017-01-06T13:03:24.233Z,1028.4
2017-01-06T13:04:35.191Z,1028.36
2017-01-06T13:05:46.727Z,1028.37
2017-01-06T13:06:58.809Z,1028.38
2017-01-06T13:08:09.445Z,1028.34
2017-01-06T13:09:20.131Z,1028.33
2017-01-06T13:10:31.036Z,1028.34
2017-01-06T13:11:42.693Z,1028.38
2017-01-06T13:12:54.151Z,1028.38
2017-01-06T13:14:05.384Z,1028.35
2017-01-06T13:15:17.146Z,1028.4
2017-01-06T13:16:29.098Z,1028.36
2017-01-06T13:17:42.040Z,1028.33
2017-01-06T13:18:53.181Z,1028.34
2017-01-06T13:20:04.538Z,1028.32
2017-01-06T13:21:16.527Z,1028.34
2017-01-06T13:22:28.073Z,1028.35
2017-01-06T13:23:40.277Z,1028.36
2017-01-06T13:24:53.239Z,1028.35
2017-01-06T13:26:05.448Z,1028.34
2017-01-06T13:27:18.029Z,1028.26
2017-01-06T13:28:29.663Z,1028.27
2017-01-06T13:29:41.864Z,1028.23
2017-01-06T13:30:53.549Z,1028.23
2017-01-06T13:32:05.578Z,1028.25
2017-01-06T13:33:17.539Z,1028.25
2017-01-06T13:34:29.204Z,1028.2
2017-01-06T13:35:40.713Z,1028.23
2017-01-06T13:36:51.606Z,1028.22
2017-01-06T13:38:02.513Z,1028.23
2017-01-06T13:39:13.847Z,1028.25
2017-01-06T13:40:24.797Z,1028.27
2017-01-06T13:41:35.698Z,1028.26
2017-01-06T13:42:47.030Z,1028.26
2017-01-06T13:43:57.932Z,1028.23
2017-01-06T13:45:09.272Z,1028.21
2017-01-06T13:46:20.221Z,1028.19
2017-01-06T13:47:31.114Z,1028.2
2017-01-06T13:48:42.015Z,1028.22
2017-01-06T13:49:52.908Z,1028.18
2017-01-06T13:51:03.810Z,1028.18
2017-01-06T13:52:14.787Z,1028.2
2017-01-06T13:53:26.128Z,1028.22
2017-01-06T13:54:37.033Z,1028.23
2017-01-06T13:55:48.375Z,1028.19
2017-01-06T13:56:58.551Z,1028.15
2017-01-06T13:58:10.165Z,1028.15
2017-01-06T13:59:20.634Z,1028.17
2017-01-06T14:00:31.967Z,1028.2
2017-01-06T14:01:42.017Z,1028.17
2017-01-06T14:02:53.505Z,1028.16
2017-01-06T14:04:06.099Z,1028.18
2017-01-06T14:05:16.723Z,1028.13
2017-01-06T14:06:27.625Z,1028.18
2017-01-06T14:07:38.954Z,1028.15
2017-01-06T14:08:49.863Z,1028.16
2017-01-06T14:10:00.816Z,1028.13
2017-01-06T14:11:11.286Z,1028.16
2017-01-06T14:12:22.607Z,1028.15
2017-01-06T14:13:33.927Z,1028.17
2017-01-06T14:14:44.825Z,1028.11
2017-01-06T14:15:56.354Z,1028.12
2017-01-06T14:17:07.687Z,1028.15
2017-01-06T14:18:18.593Z,1028.18
2017-01-06T14:19:29.499Z,1028.12
2017-01-06T14:20:40.819Z,1028.13
2017-01-06T14:21:52.192Z,1028.13
2017-01-06T14:23:03.089Z,1028.13
2017-01-06T14:24:13.990Z,1028.17
2017-01-06T14:25:24.888Z,1028.17
2017-01-06T14:26:36.209Z,1028.17
2017-01-06T14:27:47.159Z,1028.18
2017-01-06T14:28:58.487Z,1028.19
2017-01-06T14:30:09.820Z,1028.21
2017-01-06T14:31:20.726Z,1028.2
2017-01-06T14:32:31.627Z,1028.23
2017-01-06T14:33:43.004Z,1028.21
2017-01-06T14:34:54.330Z,1028.21
2017-01-06T14:36:05.227Z,1028.21
2017-01-06T14:37:16.132Z,1028.18
2017-01-06T14:38:27.045Z,1028.2
2017-01-06T14:39:38.430Z,1028.19
2017-01-06T14:40:49.760Z,1028.19
2017-01-06T14:42:00.281Z,1028.21
2017-01-06T14:43:11.195Z,1028.23
2017-01-06T14:44:22.523Z,1028.2
2017-01-06T14:45:33.845Z,1028.2
2017-01-06T14:46:45.162Z,1028.18
2017-01-06T14:47:56.111Z,1028.19
2017-01-06T14:49:07.285Z,1028.24
2017-01-06T14:50:18.002Z,1028.25
2017-01-06T14:51:28.895Z,1028.27
2017-01-06T14:52:40.224Z,1028.25
2017-01-06T14:53:51.181Z,1028.25
2017-01-06T14:55:01.683Z,1028.25
2017-01-06T14:56:12.584Z,1028.23
2017-01-06T14:57:23.537Z,1028.24
2017-01-06T14:58:34.442Z,1028.25
2017-01-06T14:59:45.351Z,1028.23
2017-01-06T15:00:55.973Z,1028.19
2017-01-06T15:02:06.942Z,1028.2
2017-01-06T15:03:17.547Z,1028.17
2017-01-06T15:04:29.017Z,1028.1
2017-01-06T15:05:39.385Z,1028.11
2017-01-06T15:06:50.143Z,1028.07
2017-01-06T15:08:01.039Z,1028.05
2017-01-06T15:09:12.369Z,1028.03
2017-01-06T15:10:23.270Z,1028.06
2017-01-06T15:11:33.791Z,1028.09
2017-01-06T15:12:45.112Z,1028.06
2017-01-06T15:13:56.193Z,1028.04
2017-01-06T15:15:07.118Z,1028.04
2017-01-06T15:16:18.443Z,1028.09
2017-01-06T15:17:29.821Z,1028.12
2017-01-06T15:18:40.722Z,1028.13
2017-01-06T15:19:52.823Z,1028.18
2017-01-06T15:21:04.100Z,1028.2
2017-01-06T15:22:14.745Z,1028.21
2017-01-06T15:23:25.690Z,1028.17
2017-01-06T15:24:37.219Z,1028.18
2017-01-06T15:25:48.192Z,1028.17
2017-01-06T15:26:59.093Z,1028.17
2017-01-06T15:28:09.999Z,1028.19
2017-01-06T15:29:21.491Z,1028.22
2017-01-06T15:30:32.816Z,1028.16
2017-01-06T15:31:44.178Z,1028.16
2017-01-06T15:32:55.107Z,1028.16
2017-01-06T15:34:06.008Z,1028.17
2017-01-06T15:35:17.397Z,1028.12
2017-01-06T15:36:29.118Z,1028.12
2017-01-06T15:37:40.020Z,1028.12
2017-01-06T15:38:51.349Z,1028.1
2017-01-06T15:40:02.738Z,1028.1
2017-01-06T15:41:14.123Z,1028.1
2017-01-06T15:42:25.144Z,1028.09
2017-01-06T15:43:36.478Z,1028.07
2017-01-06T15:44:47.615Z,1028.06
2017-01-06T15:45:58.865Z,1028.06
2017-01-06T15:47:10.245Z,1028.03
2017-01-06T15:48:20.523Z,1028.06
2017-01-06T15:49:31.836Z,1028.1
2017-01-06T15:50:42.733Z,1028.08
2017-01-06T15:51:54.059Z,1028.08
2017-01-06T15:53:05.440Z,1028.05
2017-01-06T15:54:16.345Z,1028.03
2017-01-06T15:55:27.474Z,1028.04
2017-01-06T15:56:38.567Z,1028.01
2017-01-06T15:57:49.528Z,1028.03
2017-01-06T15:59:00.686Z,1028.05
2017-01-06T16:00:12.015Z,1027.99
2017-01-06T16:01:23.344Z,1027.99
2017-01-06T16:02:34.281Z,1027.97
2017-01-06T16:03:45.182Z,1027.98
2017-01-06T16:04:56.556Z,1027.98
2017-01-06T16:06:07.085Z,1027.96
2017-01-06T16:07:17.982Z,1028.05
2017-01-06T16:08:28.884Z,1028.02
2017-01-06T16:09:40.206Z,1028.11
2017-01-06T16:10:50.725Z,1028.11
2017-01-06T16:12:02.143Z,1028.1
2017-01-06T16:13:13.048Z,1028.09
2017-01-06T16:14:23.942Z,1028.12
2017-01-06T16:15:35.267Z,1028.13
2017-01-06T16:16:46.217Z,1028.1
2017-01-06T16:17:56.870Z,1028.03
2017-01-06T16:19:07.351Z,1028.03
2017-01-06T16:20:18.693Z,1028.03
2017-01-06T16:21:30.226Z,1028
2017-01-06T16:22:40.289Z,1028.01
2017-01-06T16:23:50.937Z,1028.05
2017-01-06T16:25:01.843Z,1028.03
2017-01-06T16:26:12.499Z,1028.02
2017-01-06T16:27:23.436Z,1027.97
2017-01-06T16:28:34.173Z,1027.97
2017-01-06T16:29:44.726Z,1027.98
2017-01-06T16:30:55.632Z,1027.97
2017-01-06T16:32:06.541Z,1027.95
2017-01-06T16:33:17.866Z,1027.96
2017-01-06T16:34:29.588Z,1027.98
2017-01-06T16:35:40.485Z,1027.96
2017-01-06T16:36:52.014Z,1027.92
2017-01-06T16:38:03.100Z,1027.9
2017-01-06T16:39:14.009Z,1027.91
2017-01-06T16:40:25.106Z,1027.88
2017-01-06T16:41:36.031Z,1027.92
2017-01-06T16:42:46.957Z,1027.93
2017-01-06T16:43:58.066Z,1027.9
2017-01-06T16:45:08.535Z,1027.9
2017-01-06T16:46:19.920Z,1027.87
2017-01-06T16:47:30.858Z,1027.88
2017-01-06T16:48:42.223Z,1027.84
2017-01-06T16:49:53.285Z,1027.84
2017-01-06T16:51:04.190Z,1027.8
2017-01-06T16:52:15.759Z,1027.8
2017-01-06T16:53:26.228Z,1027.77
2017-01-06T16:54:37.229Z,1027.78
2017-01-06T16:55:48.127Z,1027.73
2017-01-06T16:56:59.036Z,1027.73
2017-01-06T16:58:09.557Z,1027.71
2017-01-06T16:59:20.030Z,1027.73
2017-01-06T17:00:31.375Z,1027.74
2017-01-06T17:01:42.465Z,1027.72
2017-01-06T17:02:52.674Z,1027.65
2017-01-06T17:04:03.387Z,1027.67
2017-01-06T17:05:14.398Z,1027.64
2017-01-06T17:06:25.765Z,1027.65
2017-01-06T17:07:37.092Z,1027.66
2017-01-06T17:08:47.277Z,1027.67
2017-01-06T17:09:58.662Z,1027.69
2017-01-06T17:11:09.327Z,1027.71
2017-01-06T17:12:19.896Z,1027.66
2017-01-06T17:13:31.219Z,1027.65
2017-01-06T17:14:42.214Z,1027.64
2017-01-06T17:15:52.820Z,1027.66
2017-01-06T17:17:03.733Z,1027.65
2017-01-06T17:18:15.362Z,1027.63
2017-01-06T17:19:25.845Z,1027.66
2017-01-06T17:20:37.173Z,1027.63
2017-01-06T17:21:48.654Z,1027.61
2017-01-06T17:22:59.983Z,1027.61
2017-01-06T17:24:10.885Z,1027.62
2017-01-06T17:25:21.892Z,1027.56
2017-01-06T17:26:32.983Z,1027.58
2017-01-06T17:27:43.932Z,1027.56
2017-01-06T17:28:55.050Z,1027.61
2017-01-06T17:30:06.375Z,1027.61
2017-01-06T17:31:17.960Z,1027.66
2017-01-06T17:32:28.861Z,1027.61
2017-01-06T17:33:40.435Z,1027.58
2017-01-06T17:34:51.760Z,1027.53
2017-01-06T17:36:03.173Z,1027.52
2017-01-06T17:37:14.070Z,1027.52
2017-01-06T17:38:25.168Z,1027.52
2017-01-06T17:39:36.541Z,1027.48
2017-01-06T17:40:46.762Z,1027.45
2017-01-06T17:41:58.092Z,1027.44
2017-01-06T17:43:08.997Z,1027.44
2017-01-06T17:44:19.917Z,1027.45
2017-01-06T17:45:30.867Z,1027.46
2017-01-06T17:46:42.188Z,1027.46
2017-01-06T17:47:53.811Z,1027.45
2017-01-06T17:49:09.687Z,1027.49
2017-01-06T17:50:20.164Z,1027.51
2017-01-06T17:51:31.551Z,1027.51
2017-01-06T17:52:42.491Z,1027.43
2017-01-06T17:53:53.560Z,1027.45
2017-01-06T17:55:04.661Z,1027.44
2017-01-06T17:56:15.763Z,1027.43
2017-01-06T17:57:26.875Z,1027.44
2017-01-06T17:58:38.297Z,1027.44
2017-01-06T17:59:49.206Z,1027.41
2017-01-06T18:00:59.707Z,1027.32
2017-01-06T18:02:10.453Z,1027.33
2017-01-06T18:03:20.930Z,1027.36
2017-01-06T18:04:31.831Z,1027.34
2017-01-06T18:05:43.152Z,1027.36
2017-01-06T18:06:54.051Z,1027.34
2017-01-06T18:08:05.431Z,1027.33
2017-01-06T18:09:16.336Z,1027.32
2017-01-06T18:10:27.242Z,1027.33
2017-01-06T18:11:38.562Z,1027.3
2017-01-06T18:12:49.896Z,1027.3
2017-01-06T18:14:00.885Z,1027.21
2017-01-06T18:15:11.782Z,1027.19
2017-01-06T18:16:23.114Z,1027.16
2017-01-06T18:17:34.013Z,1027.13
2017-01-06T18:18:45.343Z,1027.13
2017-01-06T18:19:56.291Z,1027.08
2017-01-06T18:21:07.620Z,1027.04
2017-01-06T18:22:18.941Z,1027.02
2017-01-06T18:23:30.267Z,1027.03
2017-01-06T18:24:41.168Z,1027.03
2017-01-06T18:25:52.541Z,1026.99
2017-01-06T18:27:03.866Z,1026.99
2017-01-06T18:28:14.767Z,1027
2017-01-06T18:29:26.093Z,1027.02
2017-01-06T18:30:36.993Z,1027.04
2017-01-06T18:31:47.943Z,1027.14
2017-01-06T18:32:59.269Z,1027.15
2017-01-06T18:34:10.594Z,1027.19
2017-01-06T18:35:21.926Z,1027.17
2017-01-06T18:36:33.252Z,1027.2
2017-01-06T18:37:44.201Z,1027.19
2017-01-06T18:38:55.782Z,1027.2
2017-01-06T18:40:06.688Z,1027.21
2017-01-06T18:41:18.020Z,1027.16
2017-01-06T18:42:28.921Z,1027.11
2017-01-06T18:43:40.303Z,1027.07
2017-01-06T18:44:51.212Z,1027.04
2017-01-06T18:46:02.541Z,1027.06
2017-01-06T18:47:13.434Z,1027.09
2017-01-06T18:48:24.784Z,1027.09
2017-01-06T18:49:35.793Z,1027.09
2017-01-06T18:50:47.110Z,1027.1
2017-01-06T18:51:58.007Z,1027.08
2017-01-06T18:53:08.905Z,1027.04
2017-01-06T18:54:20.230Z,1027
2017-01-06T18:55:31.607Z,1026.97
2017-01-06T18:56:42.516Z,1027
2017-01-06T18:57:53.414Z,1026.99
2017-01-06T18:59:04.739Z,1027.03
2017-01-06T19:00:16.072Z,1026.98
2017-01-06T19:01:27.037Z,1026.92
2017-01-06T19:02:37.942Z,1026.93
2017-01-06T19:03:48.880Z,1026.91
2017-01-06T19:04:59.780Z,1026.89
2017-01-06T19:06:10.686Z,1026.94
2017-01-06T19:07:21.631Z,1026.89
2017-01-06T19:08:32.956Z,1026.91
2017-01-06T19:09:43.865Z,1026.9
2017-01-06T19:10:55.194Z,1026.88
2017-01-06T19:12:06.092Z,1026.9
2017-01-06T19:13:17.513Z,1026.82
2017-01-06T19:14:28.417Z,1026.81
2017-01-06T19:15:39.311Z,1026.84
2017-01-06T19:16:50.216Z,1026.8
2017-01-06T19:18:01.117Z,1026.78
2017-01-06T19:19:12.075Z,1026.8
2017-01-06T19:20:22.556Z,1026.79
2017-01-06T19:21:33.929Z,1026.78
2017-01-06T19:22:45.258Z,1026.74
2017-01-06T19:23:55.735Z,1026.72
2017-01-06T19:25:05.880Z,1026.73
2017-01-06T19:26:16.813Z,1026.71
2017-01-06T19:27:27.822Z,1026.67
2017-01-06T19:28:38.880Z,1026.64
2017-01-06T19:29:49.037Z,1026.68
2017-01-06T19:30:58.890Z,1026.66
2017-01-06T19:32:10.003Z,1026.67
2017-01-06T19:33:20.688Z,1026.63
2017-01-06T19:34:31.381Z,1026.64
2017-01-06T19:35:41.655Z,1026.6
2017-01-06T19:36:52.052Z,1026.67
2017-01-06T19:38:02.813Z,1026.62
2017-01-06T19:39:13.610Z,1026.62
2017-01-06T19:40:24.075Z,1026.62
2017-01-06T19:41:34.552Z,1026.65
2017-01-06T19:42:45.418Z,1026.66
2017-01-06T19:43:55.535Z,1026.64
2017-01-06T19:45:07.504Z,1026.59
2017-01-06T19:46:18.493Z,1026.58
2017-01-06T19:47:29.149Z,1026.54
2017-01-06T19:48:40.741Z,1026.53
2017-01-06T19:49:51.725Z,1026.53
2017-01-06T19:51:02.858Z,1026.51
2017-01-06T19:52:13.487Z,1026.46
2017-01-06T19:53:23.692Z,1026.49
2017-01-06T19:54:35.389Z,1026.44
2017-01-06T19:55:45.531Z,1026.47
2017-01-06T19:56:55.640Z,1026.42
2017-01-06T19:58:05.337Z,1026.42
2017-01-06T19:59:15.466Z,1026.47
2017-01-06T20:00:26.431Z,1026.43
2017-01-06T20:01:36.892Z,1026.4
2017-01-06T20:02:46.981Z,1026.43
2017-01-06T20:03:57.939Z,1026.48
2017-01-06T20:05:08.359Z,1026.41
2017-01-06T20:06:19.717Z,1026.46
2017-01-06T20:07:30.210Z,1026.49
2017-01-06T20:08:40.564Z,1026.44
2017-01-06T20:09:51.468Z,1026.46
2017-01-06T20:11:01.885Z,1026.37
2017-01-06T20:12:13.898Z,1026.37
2017-01-06T20:13:24.504Z,1026.32
2017-01-06T20:14:35.469Z,1026.4
2017-01-06T20:15:45.814Z,1026.41
2017-01-06T20:16:55.903Z,1026.42
2017-01-06T20:18:05.981Z,1026.42
2017-01-06T20:19:17.425Z,1026.44
2017-01-06T20:20:27.923Z,1026.43
2017-01-06T20:21:38.328Z,1026.46
2017-01-06T20:22:48.853Z,1026.52
2017-01-06T20:23:58.482Z,1026.46
2017-01-06T20:25:09.475Z,1026.48
2017-01-06T20:26:20.800Z,1026.46
2017-01-06T20:27:31.322Z,1026.47
2017-01-06T20:28:41.738Z,1026.45
2017-01-06T20:29:52.672Z,1026.49
2017-01-06T20:31:03.081Z,1026.42
2017-01-06T20:32:13.882Z,1026.43
2017-01-06T20:33:24.284Z,1026.43
2017-01-06T20:34:35.044Z,1026.48
2017-01-06T20:35:45.190Z,1026.43
2017-01-06T20:36:55.979Z,1026.43
2017-01-06T20:38:06.420Z,1026.48
2017-01-06T20:39:17.161Z,1026.47
2017-01-06T20:40:27.122Z,1026.45
2017-01-06T20:41:37.055Z,1026.47
2017-01-06T20:42:47.448Z,1026.44
2017-01-06T20:43:57.790Z,1026.38
2017-01-06T20:45:08.999Z,1026.36
2017-01-06T20:46:20.836Z,1026.37
2017-01-06T20:47:31.253Z,1026.44
2017-01-06T20:48:42.827Z,1026.44
2017-01-06T20:49:53.115Z,1026.38
2017-01-06T20:51:03.040Z,1026.34
2017-01-06T20:52:14.214Z,1026.35
2017-01-06T20:53:24.963Z,1026.35
2017-01-06T20:54:35.212Z,1026.34
2017-01-06T20:55:44.541Z,1026.26
2017-01-06T20:56:55.242Z,1026.26
2017-01-06T20:58:05.072Z,1026.22
2017-01-06T20:59:16.664Z,1026.26
2017-01-06T21:00:26.454Z,1026.25
2017-01-06T21:01:37.535Z,1026.27
2017-01-06T21:02:47.689Z,1026.26
2017-01-06T21:03:58.393Z,1026.22
2017-01-06T21:05:09.562Z,1026.2
2017-01-06T21:06:19.843Z,1026.18
2017-01-06T21:07:30.549Z,1026.2
2017-01-06T21:08:41.662Z,1026.2
2017-01-06T21:09:52.303Z,1026.18
2017-01-06T21:11:03.064Z,1026.09
2017-01-06T21:12:13.685Z,1026.02
2017-01-06T21:13:24.687Z,1026.02
2017-01-06T21:14:35.295Z,1026.05
2017-01-06T21:15:44.989Z,1026.02
2017-01-06T21:16:55.698Z,1025.99
2017-01-06T21:18:05.879Z,1026.06
2017-01-06T21:19:16.493Z,1026.09
2017-01-06T21:20:26.229Z,1026.07
2017-01-06T21:21:36.803Z,1026.11
2017-01-06T21:22:47.792Z,1026.1
2017-01-06T21:23:57.949Z,1026.06
2017-01-06T21:25:09.402Z,1026
2017-01-06T21:26:19.503Z,1025.99
2017-01-06T21:27:30.049Z,1026.05
2017-01-06T21:28:40.202Z,1026.06
2017-01-06T21:29:49.991Z,1026.07
2017-01-06T21:31:00.148Z,1026.04
2017-01-06T21:32:10.261Z,1026
2017-01-06T21:33:20.766Z,1026
2017-01-06T21:34:30.900Z,1025.99
2017-01-06T21:35:41.398Z,1025.99
2017-01-06T21:36:51.574Z,1026
2017-01-06T21:38:02.504Z,1026.03
2017-01-06T21:39:12.996Z,1026.01
2017-01-06T21:40:22.686Z,1026.05
2017-01-06T21:41:33.595Z,1026.03
2017-01-06T21:42:44.512Z,1026.03
2017-01-06T21:43:54.601Z,1026.01
2017-01-06T21:45:05.550Z,1026.05
2017-01-06T21:46:16.151Z,1026.1
2017-01-06T21:47:27.053Z,1026.12
2017-01-06T21:48:38.402Z,1026.17
2017-01-06T21:49:48.895Z,1026.06
2017-01-06T21:50:59.400Z,1026.1
2017-01-06T21:52:09.530Z,1026.1
2017-01-06T21:53:20.011Z,1026.1
2017-01-06T21:54:30.496Z,1026.12
2017-01-06T21:55:40.541Z,1026.11
2017-01-06T21:56:50.634Z,1026.13
2017-01-06T21:58:01.643Z,1026.15
2017-01-06T21:59:12.560Z,1026.15
2017-01-06T22:00:23.034Z,1026.12
2017-01-06T22:01:34.351Z,1026.12
2017-01-06T22:02:45.252Z,1026.18
2017-01-06T22:03:56.629Z,1026.15
2017-01-06T22:05:07.542Z,1026.14
2017-01-06T22:06:18.864Z,1026.07
2017-01-06T22:07:29.761Z,1026.11
2017-01-06T22:08:40.678Z,1026.05
2017-01-06T22:09:51.619Z,1026.05
2017-01-06T22:11:02.938Z,1026.03
2017-01-06T22:12:14.266Z,1026.04
2017-01-06T22:13:24.747Z,1025.99
2017-01-06T22:14:35.640Z,1026.01
2017-01-06T22:15:46.589Z,1025.93
2017-01-06T22:16:57.506Z,1025.84
2017-01-06T22:18:08.432Z,1025.77
2017-01-06T22:19:19.761Z,1025.75
2017-01-06T22:20:30.662Z,1025.75
2017-01-06T22:21:42.031Z,1025.74
2017-01-06T22:22:53.359Z,1025.75
2017-01-06T22:24:04.273Z,1025.76
2017-01-06T22:25:15.183Z,1025.8
2017-01-06T22:26:26.520Z,1025.77
2017-01-06T22:27:37.463Z,1025.79
2017-01-06T22:28:48.794Z,1025.78
2017-01-06T22:29:59.688Z,1025.75
2017-01-06T22:31:11.009Z,1025.74
2017-01-06T22:32:21.907Z,1025.74
2017-01-06T22:33:32.903Z,1025.71
2017-01-06T22:34:43.800Z,1025.65
2017-01-06T22:35:55.122Z,1025.66
2017-01-06T22:37:06.439Z,1025.65
2017-01-06T22:38:17.324Z,1025.61
2017-01-06T22:39:28.301Z,1025.58
2017-01-06T22:40:39.194Z,1025.57
2017-01-06T22:41:50.091Z,1025.57
2017-01-06T22:43:01.409Z,1025.45
2017-01-06T22:44:12.305Z,1025.51
2017-01-06T22:45:23.251Z,1025.52
2017-01-06T22:46:34.144Z,1025.54
2017-01-06T22:47:45.469Z,1025.5
